LFRN 200500Z AUTO 30002KT 5000 BR NSC 09/09 Q1023 TEMPO 0700 BCFG

ElémentsDécodage
LFRN Station météo située sur l'aérodrome de RENNES Saint-Jacques
200500Z émis le 20 du mois à 05h00 UTC
AUTO Bulletin édité par un automate
30002KT vent du 300°, 02 noeuds
5000 visibilité horizontale de 5000 mètres
BR brume
NSC pas de nuage significatif (pas de nuage <5000ft, pas de CB)
09/09 température 09°C, point de rosée 09°C
 soit une humidité relative de 100%
Q1023 la pression au niveau de la mer (QNH) est de 1023 hPa
TEMPO fluctuation temporaire prévue
0700 visibilité horizontale de 700 mètres
BCFG bancs de brouillard